createdAt,value
2017-09-24T00:00:37.579Z,87.68
2017-09-24T00:03:07.437Z,87.81
2017-09-24T00:05:36.632Z,87.84
2017-09-24T00:08:05.690Z,87.96
2017-09-24T00:10:35.601Z,88.36
2017-09-24T00:13:04.717Z,88.46
2017-09-24T00:15:34.540Z,88.60
2017-09-24T00:18:03.626Z,88.83
2017-09-24T00:20:33.479Z,89.01
2017-09-24T00:23:02.789Z,89.05
2017-09-24T00:25:31.853Z,89.06
2017-09-24T00:28:00.933Z,89.03
2017-09-24T00:30:29.997Z,88.91
2017-09-24T00:33:00.587Z,88.87
2017-09-24T00:35:29.676Z,88.80
2017-09-24T00:37:58.817Z,88.74
2017-09-24T00:40:29.407Z,88.76
2017-09-24T00:42:58.828Z,88.86
2017-09-24T00:45:27.881Z,89.09
2017-09-24T00:47:57.735Z,89.24
2017-09-24T00:50:26.913Z,89.41
2017-09-24T00:52:56.083Z,89.47
2017-09-24T00:55:25.938Z,89.68
2017-09-24T00:57:55.016Z,89.78
2017-09-24T01:00:24.109Z,90.08
2017-09-24T01:02:53.164Z,90.20
2017-09-24T01:05:22.283Z,90.44
2017-09-24T01:07:52.126Z,90.35
2017-09-24T01:10:21.552Z,90.34
2017-09-24T01:12:50.616Z,90.31
2017-09-24T01:15:19.692Z,90.22
2017-09-24T01:17:48.794Z,90.19
2017-09-24T01:20:18.608Z,90.22
2017-09-24T01:22:47.688Z,90.19
2017-09-24T01:25:17.533Z,90.07
2017-09-24T01:27:46.579Z,90.03
2017-09-24T01:30:16.420Z,89.92
2017-09-24T01:32:46.255Z,90.08
2017-09-24T01:35:15.385Z,90.08
2017-09-24T01:37:44.425Z,90.14
2017-09-24T01:40:14.258Z,90.12
2017-09-24T01:42:43.310Z,90.09
2017-09-24T01:45:13.137Z,89.90
2017-09-24T01:47:43.023Z,89.77
2017-09-24T01:50:12.088Z,89.78
2017-09-24T01:52:41.183Z,89.79
2017-09-24T01:55:10.280Z,89.80
2017-09-24T01:57:39.355Z,89.93
2017-09-24T02:00:08.441Z,89.81
2017-09-24T02:02:38.293Z,89.86
2017-09-24T02:05:07.368Z,89.99
2017-09-24T02:07:36.438Z,90.25
2017-09-24T02:10:05.633Z,90.31
2017-09-24T02:12:35.456Z,90.42
2017-09-24T02:15:04.607Z,90.55
2017-09-24T02:17:33.684Z,90.73
2017-09-24T02:20:02.755Z,90.67
2017-09-24T02:22:31.827Z,90.72
2017-09-24T02:25:01.711Z,90.55
2017-09-24T02:27:32.256Z,90.43
2017-09-24T02:30:02.120Z,90.37
2017-09-24T02:32:31.212Z,90.39
2017-09-24T02:35:00.270Z,90.44
2017-09-24T02:37:30.096Z,90.34
2017-09-24T02:39:59.193Z,90.46
2017-09-24T02:42:28.566Z,90.46
2017-09-24T02:44:58.085Z,90.52
2017-09-24T02:47:27.111Z,90.64
2017-09-24T02:49:56.195Z,90.88
2017-09-24T02:52:25.254Z,90.88
2017-09-24T02:54:54.321Z,90.95
2017-09-24T02:57:23.396Z,91.00
2017-09-24T02:59:52.451Z,90.99
2017-09-24T03:02:22.298Z,91.04
2017-09-24T03:04:51.384Z,90.95
2017-09-24T03:07:20.490Z,90.86
2017-09-24T03:09:49.537Z,90.75
2017-09-24T03:12:20.128Z,90.63
2017-09-24T03:14:49.360Z,90.64
2017-09-24T03:17:19.215Z,90.59
2017-09-24T03:19:48.284Z,90.47
2017-09-24T03:22:18.370Z,90.38
2017-09-24T03:24:47.445Z,90.24
2017-09-24T03:27:16.497Z,89.88
2017-09-24T03:29:46.326Z,89.77
2017-09-24T03:32:15.398Z,89.52
2017-09-24T03:34:44.473Z,89.35
2017-09-24T03:37:15.186Z,89.40
2017-09-24T03:39:44.287Z,89.39
2017-09-24T03:42:13.359Z,89.31
2017-09-24T03:44:42.429Z,89.27
2017-09-24T03:47:12.250Z,89.01
2017-09-24T03:49:41.425Z,89.02
2017-09-24T03:52:11.292Z,89.02
2017-09-24T03:54:40.368Z,89.06
2017-09-24T03:57:09.463Z,88.88
2017-09-24T03:59:38.536Z,88.99
2017-09-24T04:02:08.348Z,89.01
2017-09-24T04:04:38.198Z,88.96
2017-09-24T04:07:07.267Z,88.98
2017-09-24T04:09:36.344Z,88.94
2017-09-24T04:12:05.400Z,88.81
2017-09-24T04:14:34.473Z,88.80
2017-09-24T04:17:03.524Z,88.76
2017-09-24T04:19:33.376Z,88.74
2017-09-24T04:22:02.440Z,88.91
2017-09-24T04:24:32.316Z,88.99
2017-09-24T04:27:01.393Z,89.13
2017-09-24T04:29:30.466Z,89.08
2017-09-24T04:31:59.560Z,89.04
2017-09-24T04:34:29.451Z,89.15
2017-09-24T04:36:58.537Z,89.26
2017-09-24T04:39:27.681Z,89.18
2017-09-24T04:41:56.899Z,89.24
2017-09-24T04:44:25.958Z,89.21
2017-09-24T04:46:55.019Z,89.18
2017-09-24T04:49:24.108Z,89.17
2017-09-24T04:51:53.517Z,89.14
2017-09-24T04:54:24.117Z,89.06
2017-09-24T04:56:53.184Z,89.16
2017-09-24T04:59:22.248Z,89.18
2017-09-24T05:01:52.085Z,89.12
2017-09-24T05:04:21.153Z,89.06
2017-09-24T05:06:50.228Z,88.81
2017-09-24T05:09:19.312Z,88.85
2017-09-24T05:11:48.374Z,88.76
2017-09-24T05:14:17.453Z,88.68
2017-09-24T05:16:47.266Z,88.43
2017-09-24T05:19:17.119Z,88.41
2017-09-24T05:21:46.177Z,88.37
2017-09-24T05:24:16.065Z,88.33
2017-09-24T05:26:45.089Z,88.33
2017-09-24T05:29:14.945Z,88.19
2017-09-24T05:31:44.025Z,88.20
2017-09-24T05:34:13.244Z,88.17
2017-09-24T05:36:42.329Z,88.23
2017-09-24T05:39:11.415Z,88.20
2017-09-24T05:41:40.487Z,88.19
2017-09-24T05:44:09.554Z,88.11
2017-09-24T05:46:38.694Z,88.09
2017-09-24T05:49:07.826Z,88.14
2017-09-24T05:51:36.904Z,88.20
2017-09-24T05:54:05.971Z,88.13
2017-09-24T05:56:35.017Z,88.15
2017-09-24T05:59:05.619Z,88.05
2017-09-24T06:01:34.681Z,87.98
2017-09-24T06:04:03.759Z,87.68
2017-09-24T06:06:33.128Z,87.66
2017-09-24T06:09:02.363Z,87.70
2017-09-24T06:11:32.196Z,87.79
2017-09-24T06:14:02.065Z,87.86
2017-09-24T06:16:31.126Z,87.81
2017-09-24T06:19:00.183Z,87.51
2017-09-24T06:21:30.243Z,87.64
2017-09-24T06:23:59.325Z,87.76
2017-09-24T06:26:28.486Z,88.63
2017-09-24T06:28:57.537Z,89.16
2017-09-24T06:31:26.629Z,89.47
2017-09-24T06:33:55.681Z,90.07
2017-09-24T06:36:25.542Z,90.45
2017-09-24T06:38:54.588Z,89.85
2017-09-24T06:41:24.631Z,89.33
2017-09-24T06:43:53.686Z,89.26
2017-09-24T06:46:22.778Z,89.43
2017-09-24T06:48:51.841Z,89.41
2017-09-24T06:51:20.922Z,89.05
2017-09-24T06:53:50.004Z,88.92
2017-09-24T06:56:19.072Z,88.54
2017-09-24T06:58:48.907Z,88.44
2017-09-24T07:01:18.751Z,87.93
2017-09-24T07:03:47.921Z,87.93
2017-09-24T07:06:17.104Z,87.99
2017-09-24T07:08:46.167Z,88.15
2017-09-24T07:11:15.225Z,88.35
2017-09-24T07:13:44.298Z,88.30
2017-09-24T07:16:14.136Z,87.97
2017-09-24T07:18:43.203Z,87.18
2017-09-24T07:21:13.061Z,87.23
2017-09-24T07:23:42.121Z,87.22
2017-09-24T07:26:11.189Z,87.14
2017-09-24T07:28:41.043Z,86.51
2017-09-24T07:31:10.116Z,86.49
2017-09-24T07:33:39.199Z,86.17
2017-09-24T07:36:09.027Z,86.23
2017-09-24T07:38:38.864Z,86.51
2017-09-24T07:41:07.944Z,86.53
2017-09-24T07:43:37.001Z,86.98
2017-09-24T07:46:06.095Z,86.79
2017-09-24T07:48:35.180Z,86.54
2017-09-24T07:51:04.256Z,86.20
2017-09-24T07:53:33.336Z,86.76
2017-09-24T07:56:02.419Z,87.03
2017-09-24T07:58:31.479Z,86.91
2017-09-24T08:01:00.552Z,86.08
2017-09-24T08:03:29.637Z,86.79
2017-09-24T08:05:58.704Z,86.61
2017-09-24T08:08:27.799Z,86.74
2017-09-24T08:10:56.858Z,87.03
2017-09-24T08:13:26.726Z,87.43
2017-09-24T08:15:55.780Z,87.15
2017-09-24T08:18:25.640Z,86.88
2017-09-24T08:20:54.707Z,86.23
2017-09-24T08:23:23.762Z,86.65
2017-09-24T08:25:52.867Z,86.46
2017-09-24T08:28:21.959Z,86.48
2017-09-24T08:30:51.044Z,85.63
2017-09-24T08:33:20.107Z,86.54
2017-09-24T08:35:49.197Z,86.47
2017-09-24T08:38:18.502Z,86.12
2017-09-24T08:40:47.574Z,86.55
2017-09-24T08:43:16.671Z,84.77
2017-09-24T08:45:45.726Z,84.57
2017-09-24T08:48:14.797Z,84.61
2017-09-24T08:50:43.867Z,83.90
2017-09-24T08:53:12.948Z,84.21
2017-09-24T08:55:42.029Z,84.46
2017-09-24T08:58:11.899Z,84.32
2017-09-24T09:00:40.956Z,83.99
2017-09-24T09:03:10.035Z,83.78
2017-09-24T09:05:39.913Z,83.86
2017-09-24T09:08:08.980Z,84.01
2017-09-24T09:10:38.056Z,83.79
2017-09-24T09:13:07.134Z,83.47
2017-09-24T09:15:37.020Z,83.12
2017-09-24T09:18:06.122Z,83.35
2017-09-24T09:20:35.259Z,83.50
2017-09-24T09:23:04.352Z,83.45
2017-09-24T09:25:34.218Z,82.98
2017-09-24T09:28:03.304Z,83.19
2017-09-24T09:30:32.355Z,83.00
2017-09-24T09:33:19.339Z,82.50
2017-09-24T09:35:48.431Z,82.64
2017-09-24T09:38:18.301Z,82.41
2017-09-24T09:40:47.390Z,83.15
2017-09-24T09:46:39.588Z,81.97
2017-09-24T09:49:08.685Z,81.56
2017-09-24T09:51:37.788Z,81.16
2017-09-24T09:54:07.629Z,80.88
2017-09-24T09:56:36.717Z,80.15
2017-09-24T09:59:06.545Z,80.69
2017-09-24T10:01:35.605Z,80.01
2017-09-24T10:04:04.711Z,79.17
2017-09-24T10:06:47.499Z,78.28
2017-09-24T10:09:34.324Z,77.76
2017-09-24T10:12:04.943Z,77.64
2017-09-24T10:14:34.168Z,77.32
2017-09-24T10:17:04.071Z,76.47
2017-09-24T10:19:33.142Z,76.87
2017-09-24T10:22:02.203Z,76.84
2017-09-24T10:24:31.307Z,77.14
2017-09-24T10:27:00.526Z,75.91
2017-09-24T10:29:29.592Z,75.69
2017-09-24T10:32:03.702Z,75.58
2017-09-24T10:34:32.781Z,74.72
2017-09-24T10:37:02.600Z,75.03
2017-09-24T10:39:32.456Z,74.41
2017-09-24T10:42:01.552Z,73.10
2017-09-24T10:44:30.604Z,72.61
2017-09-24T10:47:00.497Z,73.62
2017-09-24T10:49:29.537Z,72.57
2017-09-24T10:51:58.596Z,73.02
2017-09-24T10:54:27.681Z,73.09
2017-09-24T10:56:56.739Z,72.49
2017-09-24T10:59:25.834Z,72.43
2017-09-24T11:01:54.987Z,72.18
2017-09-24T11:04:24.924Z,71.22
2017-09-24T11:06:54.017Z,71.42
2017-09-24T11:09:23.085Z,71.26
2017-09-24T11:11:53.095Z,71.48
2017-09-24T11:14:22.188Z,72.45
2017-09-24T11:16:51.240Z,70.17
2017-09-24T11:19:20.329Z,71.78
2017-09-24T11:21:49.562Z,69.56
2017-09-24T11:24:18.749Z,70.19
2017-09-24T11:26:48.014Z,70.17
2017-09-24T11:29:17.401Z,70.82
2017-09-24T11:31:47.273Z,70.28
2017-09-24T11:34:16.781Z,69.33
2017-09-24T11:36:46.284Z,70.19
2017-09-24T11:39:15.411Z,68.48
2017-09-24T11:41:44.549Z,69.91
2017-09-24T11:44:13.639Z,68.98
2017-09-24T11:46:42.729Z,67.25
2017-09-24T11:49:11.845Z,68.02
2017-09-24T11:51:40.935Z,68.50
2017-09-24T11:54:10.009Z,66.19
2017-09-24T11:56:39.085Z,67.22
2017-09-24T11:59:08.942Z,68.53
2017-09-24T12:01:38.017Z,67.27
2017-09-24T12:04:07.068Z,67.10
2017-09-24T12:06:36.235Z,66.84
2017-09-24T12:09:05.288Z,67.94
2017-09-24T12:11:35.114Z,68.48
2017-09-24T12:14:04.180Z,67.44
2017-09-24T12:16:34.060Z,66.75
2017-09-24T12:19:03.134Z,65.05
2017-09-24T12:21:32.220Z,65.91
2017-09-24T12:24:02.073Z,66.14
2017-09-24T12:26:31.164Z,66.87
2017-09-24T12:29:00.232Z,67.32
2017-09-24T12:31:29.322Z,64.75
2017-09-24T12:33:58.384Z,65.03
2017-09-24T12:36:28.265Z,65.70
2017-09-24T12:38:57.351Z,63.90
2017-09-24T12:41:26.448Z,64.19
2017-09-24T12:43:55.520Z,61.22
2017-09-24T12:46:24.585Z,63.55
2017-09-24T12:48:54.424Z,63.03
2017-09-24T12:51:23.502Z,63.38
2017-09-24T12:53:53.349Z,63.72
2017-09-24T12:56:22.439Z,62.94
2017-09-24T12:58:51.506Z,63.20
2017-09-24T13:01:21.348Z,63.49
2017-09-24T13:03:50.486Z,61.87
2017-09-24T13:06:20.441Z,63.89
2017-09-24T13:08:49.500Z,63.49
2017-09-24T13:11:18.576Z,64.35
2017-09-24T13:13:47.668Z,63.77
2017-09-24T13:16:16.747Z,61.55
2017-09-24T13:18:45.821Z,58.77
2017-09-24T13:21:14.887Z,59.82
2017-09-24T13:23:44.707Z,60.26
2017-09-24T13:26:14.596Z,60.91
2017-09-24T13:28:43.658Z,62.05
2017-09-24T13:31:12.746Z,62.90
2017-09-24T13:33:41.836Z,63.22
2017-09-24T13:36:10.916Z,63.06
2017-09-24T13:38:40.756Z,63.95
2017-09-24T13:41:09.839Z,64.10
2017-09-24T13:43:38.882Z,63.43
2017-09-24T13:46:09.556Z,64.49
2017-09-24T13:48:38.624Z,64.69
2017-09-24T13:51:08.537Z,64.04
2017-09-24T13:53:37.628Z,63.51
2017-09-24T13:56:06.739Z,62.79
2017-09-24T13:58:36.587Z,61.86
2017-09-24T14:01:05.641Z,62.77
2017-09-24T14:03:35.484Z,61.82
2017-09-24T14:06:04.567Z,63.06
2017-09-24T14:08:33.632Z,62.90
2017-09-24T14:11:02.720Z,61.22
2017-09-24T14:13:32.426Z,60.92
2017-09-24T14:16:01.484Z,61.72
2017-09-24T14:18:30.572Z,61.00
2017-09-24T14:20:59.664Z,60.77
2017-09-24T14:23:28.727Z,61.37
2017-09-24T14:25:58.585Z,61.63
2017-09-24T14:28:27.677Z,62.88
2017-09-24T14:30:56.930Z,64.21
2017-09-24T14:33:26.001Z,64.16
2017-09-24T14:35:55.102Z,63.75
2017-09-24T14:38:24.169Z,63.77
2017-09-24T14:40:53.265Z,64.24
2017-09-24T14:43:22.337Z,64.89
2017-09-24T14:45:52.167Z,64.86
2017-09-24T14:48:21.258Z,64.90
2017-09-24T14:50:50.328Z,64.70
2017-09-24T14:53:20.178Z,64.82
2017-09-24T14:55:49.253Z,65.25
2017-09-24T14:58:19.086Z,65.29
2017-09-24T15:00:48.395Z,66.13
2017-09-24T15:03:17.436Z,66.17
2017-09-24T15:05:47.304Z,66.12
2017-09-24T15:08:16.376Z,65.93
2017-09-24T15:10:45.456Z,66.07
2017-09-24T15:13:15.295Z,66.47
2017-09-24T15:15:44.371Z,65.41
2017-09-24T15:18:13.471Z,65.05
2017-09-24T15:20:43.540Z,63.75
2017-09-24T15:23:12.616Z,65.00
2017-09-24T15:25:41.685Z,65.37
2017-09-24T15:28:10.733Z,65.41
2017-09-24T15:30:40.681Z,65.90
2017-09-24T15:33:10.537Z,64.13
2017-09-24T15:35:39.631Z,65.10
2017-09-24T15:38:08.720Z,64.25
2017-09-24T15:40:37.815Z,64.32
2017-09-24T15:43:06.881Z,64.51
2017-09-24T15:45:36.967Z,64.67
2017-09-24T15:48:06.176Z,64.46
2017-09-24T15:50:36.011Z,65.11
2017-09-24T15:53:05.103Z,65.62
2017-09-24T15:55:34.947Z,65.76
2017-09-24T15:58:04.057Z,65.82
2017-09-24T16:00:33.116Z,65.48
2017-09-24T16:03:02.183Z,64.87
2017-09-24T16:05:32.064Z,65.40
2017-09-24T16:08:01.128Z,66.20
2017-09-24T16:10:30.201Z,65.70
2017-09-24T16:13:00.145Z,65.76
2017-09-24T16:15:29.997Z,66.34
2017-09-24T16:17:59.053Z,65.59
2017-09-24T16:20:28.128Z,65.90
2017-09-24T16:22:57.953Z,65.76
2017-09-24T16:25:27.026Z,62.91
2017-09-24T16:27:57.818Z,61.79
2017-09-24T16:30:26.879Z,62.96
2017-09-24T16:32:55.975Z,63.76
2017-09-24T16:35:25.034Z,62.21
2017-09-24T16:37:54.108Z,62.67
2017-09-24T16:40:23.168Z,63.22
2017-09-24T16:42:52.225Z,63.70
2017-09-24T16:45:22.067Z,64.48
2017-09-24T16:47:51.160Z,64.88
2017-09-24T16:50:20.212Z,65.67
2017-09-24T16:52:49.293Z,66.09
2017-09-24T16:55:18.356Z,66.41
2017-09-24T16:57:47.416Z,67.19
2017-09-24T17:00:16.481Z,67.98
2017-09-24T17:02:46.325Z,68.28
2017-09-24T17:05:18.329Z,68.81
2017-09-24T17:07:47.404Z,68.93
2017-09-24T17:10:17.204Z,69.49
2017-09-24T17:12:46.280Z,69.65
2017-09-24T17:15:15.327Z,69.98
2017-09-24T17:17:44.729Z,70.39
2017-09-24T17:20:14.286Z,70.92
2017-09-24T17:22:43.348Z,71.36
2017-09-24T17:25:12.467Z,71.76
2017-09-24T17:27:41.528Z,72.14
2017-09-24T17:30:10.623Z,72.82
2017-09-24T17:32:39.691Z,73.35
2017-09-24T17:35:09.581Z,73.81
2017-09-24T17:37:38.756Z,74.08
2017-09-24T17:40:08.117Z,74.42
2017-09-24T17:42:37.992Z,74.83
2017-09-24T17:45:07.499Z,75.14
2017-09-24T17:47:38.094Z,75.39
2017-09-24T17:50:07.378Z,75.59
2017-09-24T17:52:36.545Z,75.92
2017-09-24T17:55:06.764Z,76.27
2017-09-24T17:57:35.868Z,76.39
2017-09-24T18:00:05.712Z,76.29
2017-09-24T18:02:34.797Z,76.51
2017-09-24T18:05:03.882Z,76.79
2017-09-24T18:07:32.997Z,77.35
2017-09-24T18:10:02.055Z,77.71
2017-09-24T18:12:31.959Z,77.93
2017-09-24T18:15:01.034Z,78.44
2017-09-24T18:17:30.132Z,78.81
2017-09-24T18:19:59.230Z,79.07
2017-09-24T18:22:28.292Z,79.26
2017-09-24T18:24:57.392Z,79.52
2017-09-24T18:27:26.711Z,79.79
2017-09-24T18:29:55.792Z,80.17
2017-09-24T18:32:24.843Z,80.61
2017-09-24T18:34:54.716Z,80.71
2017-09-24T18:37:23.830Z,80.76
2017-09-24T18:39:52.896Z,80.89
2017-09-24T18:42:22.016Z,81.02
2017-09-24T18:44:51.100Z,81.25
2017-09-24T18:47:20.223Z,81.44
2017-09-24T18:49:50.041Z,81.74
2017-09-24T18:52:19.900Z,82.07
2017-09-24T18:54:49.143Z,82.32
2017-09-24T18:57:19.214Z,82.83
2017-09-24T18:59:48.878Z,83.24
2017-09-24T19:02:18.736Z,83.30
2017-09-24T19:04:47.931Z,83.73
2017-09-24T19:07:18.138Z,83.96
2017-09-24T19:09:47.270Z,84.16
2017-09-24T19:12:16.357Z,84.32
2017-09-24T19:14:45.640Z,84.51
2017-09-24T19:17:15.097Z,84.52
2017-09-24T19:19:44.968Z,84.58
2017-09-24T19:22:14.179Z,84.74
2017-09-24T19:24:43.523Z,84.86
2017-09-24T19:27:12.785Z,85.08
2017-09-24T19:29:41.980Z,85.05
2017-09-24T19:32:11.376Z,85.16
2017-09-24T19:34:40.529Z,85.23
2017-09-24T19:37:09.758Z,85.17
2017-09-24T19:39:39.140Z,85.10
2017-09-24T19:42:08.354Z,84.80
2017-09-24T19:44:37.711Z,84.69
2017-09-24T19:47:07.021Z,84.35
2017-09-24T19:49:36.186Z,83.94
2017-09-24T19:52:05.281Z,83.72
2017-09-24T19:54:34.384Z,83.46
2017-09-24T19:57:04.117Z,83.41
2017-09-24T19:59:33.194Z,83.48
2017-09-24T20:02:02.284Z,83.34
2017-09-24T20:04:31.381Z,83.08
2017-09-24T20:07:00.486Z,82.95
2017-09-24T20:09:29.569Z,82.94
2017-09-24T20:11:59.504Z,83.02
2017-09-24T20:14:28.565Z,82.98
2017-09-24T20:16:57.679Z,83.09
2017-09-24T20:19:26.760Z,83.20
2017-09-24T20:21:56.616Z,83.26
2017-09-24T20:24:26.466Z,83.38
2017-09-24T20:26:56.492Z,83.46
2017-09-24T20:29:25.598Z,83.43
2017-09-24T20:31:54.668Z,83.36
2017-09-24T20:34:23.753Z,84.32
2017-09-24T20:36:52.843Z,84.77
2017-09-24T20:39:22.688Z,85.34
2017-09-24T20:41:51.755Z,85.61
2017-09-24T20:44:21.571Z,85.43
2017-09-24T20:46:50.947Z,85.39
2017-09-24T20:49:19.987Z,85.28
2017-09-24T20:51:49.073Z,85.19
2017-09-24T20:54:18.146Z,85.05
2017-09-24T20:56:47.998Z,84.99
2017-09-24T20:59:17.074Z,84.79
2017-09-24T21:01:46.130Z,84.76
2017-09-24T21:04:15.241Z,84.78
2017-09-24T21:06:45.351Z,84.66
2017-09-24T21:09:14.854Z,84.59
2017-09-24T21:11:43.926Z,83.95
2017-09-24T21:14:12.994Z,84.27
2017-09-24T21:16:42.070Z,84.25
2017-09-24T21:19:11.923Z,84.47
2017-09-24T21:21:41.029Z,84.18
2017-09-24T21:24:10.054Z,84.05
2017-09-24T21:26:40.117Z,84.02
2017-09-24T21:29:09.208Z,84.08
2017-09-24T21:31:38.310Z,84.23
2017-09-24T21:34:07.379Z,84.36
2017-09-24T21:36:36.459Z,84.41
2017-09-24T21:39:06.267Z,84.48
2017-09-24T21:41:36.108Z,84.26
2017-09-24T21:44:05.474Z,84.32
2017-09-24T21:46:34.520Z,84.46
2017-09-24T21:49:03.608Z,84.81
2017-09-24T21:51:32.664Z,84.77
2017-09-24T21:54:02.516Z,84.68
2017-09-24T21:56:31.586Z,84.71
2017-09-24T21:59:01.447Z,84.72
2017-09-24T22:01:30.856Z,84.99
2017-09-24T22:03:59.932Z,86.36
2017-09-24T22:06:29.000Z,86.79
2017-09-24T22:08:58.584Z,86.82
2017-09-24T22:11:28.435Z,86.65
2017-09-24T22:13:57.519Z,86.17
2017-09-24T22:16:26.597Z,85.23
2017-09-24T22:18:56.435Z,85.22
2017-09-24T22:21:25.508Z,85.20
2017-09-24T22:23:55.339Z,85.14
2017-09-24T22:26:24.419Z,85.15
2017-09-24T22:28:54.649Z,85.10
2017-09-24T22:31:23.727Z,85.25
2017-09-24T22:33:53.543Z,85.29
2017-09-24T22:36:23.371Z,84.98
2017-09-24T22:38:52.451Z,84.77
2017-09-24T22:41:22.317Z,84.70
2017-09-24T22:43:51.492Z,84.83
2017-09-24T22:46:20.579Z,84.87
2017-09-24T22:48:49.665Z,85.02
2017-09-24T22:51:19.547Z,84.61
2017-09-24T22:53:48.620Z,84.07
2017-09-24T22:56:17.920Z,83.94
2017-09-24T22:58:46.997Z,83.86
2017-09-24T23:01:16.076Z,84.23
2017-09-24T23:03:45.144Z,84.55
2017-09-24T23:06:15.325Z,84.87
2017-09-24T23:08:44.795Z,84.92
2017-09-24T23:11:13.875Z,84.88
2017-09-24T23:13:43.709Z,84.70
2017-09-24T23:16:12.798Z,84.83
2017-09-24T23:18:41.927Z,85.07
2017-09-24T23:21:11.802Z,85.21
2017-09-24T23:23:40.869Z,85.28
2017-09-24T23:26:10.137Z,85.55
2017-09-24T23:28:39.216Z,85.83
2017-09-24T23:31:08.289Z,86.11
2017-09-24T23:33:38.131Z,86.81
2017-09-24T23:36:07.184Z,86.63
2017-09-24T23:38:37.047Z,86.78
2017-09-24T23:41:06.104Z,86.76
2017-09-24T23:43:35.186Z,86.94
2017-09-24T23:46:05.008Z,86.91
2017-09-24T23:48:35.215Z,86.77
2017-09-24T23:51:04.332Z,86.83
2017-09-24T23:53:33.427Z,87.01
2017-09-24T23:56:03.230Z,87.15
2017-09-24T23:58:33.304Z,87.09
